createdAt,value
2023-03-03T00:00:43.028Z,22.38
2023-03-03T00:01:43.030Z,22.37
2023-03-03T00:02:43.047Z,22.36
2023-03-03T00:03:43.075Z,22.38
2023-03-03T00:04:42.999Z,22.37
2023-03-03T00:05:42.980Z,22.40
2023-03-03T00:06:42.963Z,22.39
2023-03-03T00:07:42.946Z,22.40
2023-03-03T00:08:42.938Z,22.40
2023-03-03T00:09:42.937Z,22.40
2023-03-03T00:10:42.933Z,22.41
2023-03-03T00:11:42.910Z,22.43
2023-03-03T00:12:42.908Z,22.43
2023-03-03T00:13:42.912Z,22.43
2023-03-03T00:14:42.918Z,22.44
2023-03-03T00:15:42.909Z,22.46
2023-03-03T00:16:42.881Z,22.44
2023-03-03T00:17:42.858Z,22.46
2023-03-03T00:18:42.853Z,22.45
2023-03-03T00:19:42.845Z,22.45
2023-03-03T00:20:42.819Z,22.46
2023-03-03T00:21:42.820Z,22.46
2023-03-03T00:22:42.789Z,22.47
2023-03-03T00:23:42.776Z,22.48
2023-03-03T00:24:42.751Z,22.49
2023-03-03T00:25:42.764Z,22.51
2023-03-03T00:26:42.755Z,22.48
2023-03-03T00:27:42.721Z,22.49
2023-03-03T00:28:42.704Z,22.49
2023-03-03T00:29:42.693Z,22.50
2023-03-03T00:30:42.692Z,22.51
2023-03-03T00:31:42.688Z,22.51
2023-03-03T00:32:42.676Z,22.52
2023-03-03T00:33:42.669Z,22.50
2023-03-03T00:34:42.649Z,22.54
2023-03-03T00:35:42.667Z,22.53
2023-03-03T00:36:42.650Z,22.55
2023-03-03T00:37:42.620Z,22.56
2023-03-03T00:38:42.612Z,22.55
2023-03-03T00:39:42.591Z,22.54
2023-03-03T00:40:42.599Z,22.56
2023-03-03T00:41:42.562Z,22.56
2023-03-03T00:42:42.552Z,22.55
2023-03-03T00:43:42.530Z,22.56
2023-03-03T00:44:42.513Z,22.57
2023-03-03T00:45:42.516Z,22.57
2023-03-03T00:46:42.491Z,22.58
2023-03-03T00:47:42.486Z,22.59
2023-03-03T00:48:42.482Z,22.58
2023-03-03T00:49:42.466Z,22.59
2023-03-03T00:50:42.452Z,22.59
2023-03-03T00:51:42.441Z,22.60
2023-03-03T00:52:42.423Z,22.60
2023-03-03T00:53:42.421Z,22.60
2023-03-03T00:54:42.411Z,22.60
2023-03-03T00:55:42.399Z,22.61
2023-03-03T00:56:42.394Z,22.62
2023-03-03T00:57:42.392Z,22.61
2023-03-03T00:58:42.369Z,22.62
2023-03-03T00:59:42.364Z,22.63
2023-03-03T01:00:42.342Z,22.62
2023-03-03T01:01:42.376Z,22.65
2023-03-03T01:02:42.415Z,22.62
2023-03-03T01:03:42.326Z,22.62
2023-03-03T01:04:42.316Z,22.62
2023-03-03T01:05:42.300Z,22.65
2023-03-03T01:06:42.287Z,22.65
2023-03-03T01:07:42.276Z,22.64
2023-03-03T01:08:42.283Z,22.62
2023-03-03T01:09:42.276Z,22.66
2023-03-03T01:10:42.244Z,22.66
2023-03-03T01:11:42.246Z,22.64
2023-03-03T01:12:42.232Z,22.64
2023-03-03T01:13:42.216Z,22.63
2023-03-03T01:14:42.216Z,22.64
2023-03-03T01:15:42.316Z,22.64
2023-03-03T01:16:42.198Z,22.62
2023-03-03T01:17:42.171Z,22.63
2023-03-03T01:18:42.167Z,22.61
2023-03-03T01:19:42.156Z,22.56
2023-03-03T01:20:42.151Z,22.56
2023-03-03T01:21:42.135Z,22.54
2023-03-03T01:22:42.117Z,22.54
2023-03-03T01:23:42.103Z,22.52
2023-03-03T01:24:42.094Z,22.50
2023-03-03T01:25:42.095Z,22.49
2023-03-03T01:26:42.068Z,22.50
2023-03-03T01:27:42.072Z,22.49
2023-03-03T01:28:42.018Z,22.48
2023-03-03T01:29:42.030Z,22.46
2023-03-03T01:30:42.001Z,22.48
2023-03-03T01:31:42.035Z,22.43
2023-03-03T01:32:41.974Z,22.44
2023-03-03T01:33:41.950Z,22.41
2023-03-03T01:34:41.945Z,22.41
2023-03-03T01:35:41.968Z,22.40
2023-03-03T01:36:41.913Z,22.41
2023-03-03T01:37:41.883Z,22.41
2023-03-03T01:38:41.875Z,22.38
2023-03-03T01:39:41.853Z,22.39
2023-03-03T01:40:41.848Z,22.36
2023-03-03T01:41:41.834Z,22.39
2023-03-03T01:42:41.817Z,22.35
2023-03-03T01:43:41.811Z,22.34
2023-03-03T01:44:41.783Z,22.34
2023-03-03T01:45:41.785Z,22.34
2023-03-03T01:46:41.858Z,22.32
2023-03-03T01:47:41.754Z,22.31
2023-03-03T01:48:41.734Z,22.29
2023-03-03T01:49:41.721Z,22.28
2023-03-03T01:50:41.697Z,22.29
2023-03-03T01:51:41.720Z,22.27
2023-03-03T01:52:41.675Z,22.28
2023-03-03T01:53:41.664Z,22.27
2023-03-03T01:54:41.673Z,22.26
2023-03-03T01:55:41.647Z,22.25
2023-03-03T01:56:41.635Z,22.26
2023-03-03T01:57:41.623Z,22.25
2023-03-03T01:58:41.620Z,22.24
2023-03-03T01:59:41.606Z,22.22
2023-03-03T02:00:41.603Z,22.21
2023-03-03T02:01:41.609Z,22.21
2023-03-03T02:02:41.651Z,22.21
2023-03-03T02:03:41.542Z,22.21
2023-03-03T02:04:41.534Z,22.19
2023-03-03T02:05:41.537Z,22.18
2023-03-03T02:06:41.498Z,22.19
2023-03-03T02:07:41.495Z,22.17
2023-03-03T02:08:41.482Z,22.20
2023-03-03T02:09:41.454Z,22.18
2023-03-03T02:10:41.434Z,22.17
2023-03-03T02:11:41.433Z,22.18
2023-03-03T02:12:41.426Z,22.18
2023-03-03T02:13:41.399Z,22.19
2023-03-03T02:14:41.391Z,22.20
2023-03-03T02:15:41.376Z,22.21
2023-03-03T02:16:41.369Z,22.21
2023-03-03T02:17:41.377Z,22.23
2023-03-03T02:18:41.345Z,22.27
2023-03-03T02:19:41.341Z,22.26
2023-03-03T02:20:41.332Z,22.26
2023-03-03T02:21:41.316Z,22.27
2023-03-03T02:22:41.321Z,22.31
2023-03-03T02:23:41.316Z,22.29
2023-03-03T02:24:41.293Z,22.26
2023-03-03T02:25:41.283Z,22.30
2023-03-03T02:26:41.296Z,22.29
2023-03-03T02:27:41.264Z,22.30
2023-03-03T02:28:41.244Z,22.30
2023-03-03T02:29:41.247Z,22.32
2023-03-03T02:30:41.226Z,22.34
2023-03-03T02:31:41.277Z,22.33
2023-03-03T02:32:41.235Z,22.35
2023-03-03T02:33:41.187Z,22.35
2023-03-03T02:34:41.166Z,22.38
2023-03-03T02:35:41.186Z,22.37
2023-03-03T02:36:41.133Z,22.38
2023-03-03T02:37:41.129Z,22.39
2023-03-03T02:38:41.106Z,22.40
2023-03-03T02:39:41.097Z,22.42
2023-03-03T02:40:41.098Z,22.41
2023-03-03T02:41:41.068Z,22.40
2023-03-03T02:42:41.070Z,22.41
2023-03-03T02:43:41.035Z,22.42
2023-03-03T02:44:41.010Z,22.43
2023-03-03T02:45:41.002Z,22.44
2023-03-03T02:46:41.046Z,22.43
2023-03-03T02:47:40.967Z,22.44
2023-03-03T02:48:40.945Z,22.44
2023-03-03T02:49:40.912Z,22.45
2023-03-03T02:50:40.914Z,22.45
2023-03-03T02:51:40.891Z,22.47
2023-03-03T02:52:40.878Z,22.46
2023-03-03T02:53:40.864Z,22.46
2023-03-03T02:54:40.840Z,22.48
2023-03-03T02:55:40.818Z,22.49
2023-03-03T02:56:40.805Z,22.47
2023-03-03T02:57:40.800Z,22.49
2023-03-03T02:58:40.778Z,22.51
2023-03-03T02:59:40.765Z,22.50
2023-03-03T03:00:40.760Z,22.51
2023-03-03T03:01:40.732Z,22.51
2023-03-03T03:02:40.722Z,22.52
2023-03-03T03:03:40.715Z,22.51
2023-03-03T03:04:40.808Z,22.51
2023-03-03T03:05:40.678Z,22.51
2023-03-03T03:06:40.655Z,22.51
2023-03-03T03:07:40.639Z,22.54
2023-03-03T03:08:40.624Z,22.52
2023-03-03T03:09:40.598Z,22.54
2023-03-03T03:10:40.588Z,22.54
2023-03-03T03:11:40.563Z,22.56
2023-03-03T03:12:40.563Z,22.53
2023-03-03T03:13:40.544Z,22.54
2023-03-03T03:14:40.542Z,22.54
2023-03-03T03:15:40.510Z,22.57
2023-03-03T03:16:40.536Z,22.56
2023-03-03T03:17:40.481Z,22.54
2023-03-03T03:18:40.473Z,22.57
2023-03-03T03:19:40.461Z,22.58
2023-03-03T03:20:40.438Z,22.59
2023-03-03T03:21:40.434Z,22.57
2023-03-03T03:22:40.416Z,22.57
2023-03-03T03:23:40.438Z,22.58
2023-03-03T03:24:40.414Z,22.58
2023-03-03T03:25:40.391Z,22.60
2023-03-03T03:26:40.406Z,22.61
2023-03-03T03:27:40.406Z,22.59
2023-03-03T03:28:40.428Z,22.60
2023-03-03T03:29:40.357Z,22.60
2023-03-03T03:30:40.407Z,22.61
2023-03-03T03:31:40.378Z,22.61
2023-03-03T03:32:40.365Z,22.63
2023-03-03T03:33:40.360Z,22.62
2023-03-03T03:34:40.371Z,22.63
2023-03-03T03:35:40.319Z,22.62
2023-03-03T03:36:40.365Z,22.62
2023-03-03T03:37:40.225Z,22.63
2023-03-03T03:38:40.216Z,22.62
2023-03-03T03:39:40.192Z,22.64
2023-03-03T03:40:40.187Z,22.63
2023-03-03T03:41:40.169Z,22.66
2023-03-03T03:42:40.166Z,22.65
2023-03-03T03:43:40.178Z,22.63
2023-03-03T03:44:40.147Z,22.64
2023-03-03T03:45:40.169Z,22.63
2023-03-03T03:46:40.116Z,22.62
2023-03-03T03:47:40.096Z,22.65
2023-03-03T03:48:40.082Z,22.65
2023-03-03T03:49:40.085Z,22.63
2023-03-03T03:50:40.065Z,22.63
2023-03-03T03:51:40.045Z,22.64
2023-03-03T03:52:40.064Z,22.64
2023-03-03T03:53:40.028Z,22.63
2023-03-03T03:54:40.027Z,22.62
2023-03-03T03:55:40.000Z,22.64
2023-03-03T03:56:39.989Z,22.64
2023-03-03T03:57:39.968Z,22.62
2023-03-03T03:58:39.964Z,22.65
2023-03-03T03:59:39.953Z,22.63
2023-03-03T04:00:39.930Z,22.62
2023-03-03T04:01:39.911Z,22.62
2023-03-03T04:02:40.060Z,22.63
2023-03-03T04:03:39.897Z,22.63
2023-03-03T04:04:39.895Z,22.64
2023-03-03T04:05:39.887Z,22.60
2023-03-03T04:06:39.872Z,22.62
2023-03-03T04:07:39.863Z,22.61
2023-03-03T04:08:39.852Z,22.62
2023-03-03T04:09:39.839Z,22.60
2023-03-03T04:10:39.818Z,22.62
2023-03-03T04:11:39.803Z,22.61
2023-03-03T04:12:39.805Z,22.60
2023-03-03T04:13:39.779Z,22.60
2023-03-03T04:14:39.772Z,22.62
2023-03-03T04:15:39.761Z,22.61
2023-03-03T04:16:39.740Z,22.61
2023-03-03T04:17:39.724Z,22.60
2023-03-03T04:18:39.749Z,22.63
2023-03-03T04:19:39.705Z,22.63
2023-03-03T04:20:39.699Z,22.62
2023-03-03T04:21:39.681Z,22.61
2023-03-03T04:22:39.680Z,22.62
2023-03-03T04:23:39.656Z,22.62
2023-03-03T04:24:39.647Z,22.62
2023-03-03T04:25:39.638Z,22.60
2023-03-03T04:26:39.620Z,22.61
2023-03-03T04:27:39.603Z,22.60
2023-03-03T04:28:39.607Z,22.62
2023-03-03T04:29:39.590Z,22.60
2023-03-03T04:30:39.566Z,22.62
2023-03-03T04:31:39.558Z,22.62
2023-03-03T04:32:39.560Z,22.62
2023-03-03T04:33:39.555Z,22.58
2023-03-03T04:34:39.563Z,22.58
2023-03-03T04:35:39.575Z,22.60
2023-03-03T04:36:39.529Z,22.59
2023-03-03T04:37:39.521Z,22.61
2023-03-03T04:38:39.518Z,22.59
2023-03-03T04:39:39.536Z,22.61
2023-03-03T04:40:41.565Z,22.60
2023-03-03T04:41:39.492Z,22.60
2023-03-03T04:42:39.485Z,22.61
2023-03-03T04:43:39.503Z,22.59
2023-03-03T04:44:39.476Z,22.61
2023-03-03T04:45:39.476Z,22.61
2023-03-03T04:46:39.546Z,22.60
2023-03-03T04:47:39.445Z,22.60
2023-03-03T04:48:39.447Z,22.63
2023-03-03T04:49:39.430Z,22.61
2023-03-03T04:50:39.442Z,22.60
2023-03-03T04:51:39.421Z,22.62
2023-03-03T04:52:39.409Z,22.61
2023-03-03T04:53:39.393Z,22.61
2023-03-03T04:54:39.392Z,22.61
2023-03-03T04:55:39.374Z,22.61
2023-03-03T04:56:39.359Z,22.62
2023-03-03T04:57:39.347Z,22.65
2023-03-03T04:58:39.333Z,22.64
2023-03-03T04:59:39.314Z,22.66
2023-03-03T05:00:39.309Z,22.66
2023-03-03T05:01:39.344Z,22.69
2023-03-03T05:02:39.289Z,22.69
2023-03-03T05:03:39.269Z,22.68
2023-03-03T05:04:39.317Z,22.68
2023-03-03T05:05:39.264Z,22.69
2023-03-03T05:06:39.250Z,22.71
2023-03-03T05:07:39.234Z,22.69
2023-03-03T05:08:39.232Z,22.69
2023-03-03T05:09:39.232Z,22.68
2023-03-03T05:10:39.224Z,22.71
2023-03-03T05:11:39.208Z,22.72
2023-03-03T05:12:39.206Z,22.70
2023-03-03T05:13:39.184Z,22.70
2023-03-03T05:14:39.173Z,22.70
2023-03-03T05:15:40.154Z,22.71
2023-03-03T05:16:39.176Z,22.70
2023-03-03T05:17:39.178Z,22.70
2023-03-03T05:18:39.152Z,22.69
2023-03-03T05:19:39.143Z,22.71
2023-03-03T05:20:39.148Z,22.72
2023-03-03T05:21:39.124Z,22.70
2023-03-03T05:22:39.134Z,22.70
2023-03-03T05:23:39.103Z,22.70
2023-03-03T05:24:39.088Z,22.71
2023-03-03T05:25:39.083Z,22.68
2023-03-03T05:26:39.052Z,22.71
2023-03-03T05:27:39.055Z,22.71
2023-03-03T05:28:39.035Z,22.70
2023-03-03T05:29:39.021Z,22.70
2023-03-03T05:30:39.009Z,22.69
2023-03-03T05:31:39.075Z,22.69
2023-03-03T05:32:38.993Z,22.70
2023-03-03T05:33:38.974Z,22.69
2023-03-03T05:34:38.962Z,22.68
2023-03-03T05:35:38.977Z,22.69
2023-03-03T05:36:38.925Z,22.69
2023-03-03T05:37:38.919Z,22.69
2023-03-03T05:38:38.893Z,22.69
2023-03-03T05:39:38.887Z,22.70
2023-03-03T05:40:38.870Z,22.71
2023-03-03T05:41:38.843Z,22.69
2023-03-03T05:42:38.872Z,22.68
2023-03-03T05:43:38.811Z,22.67
2023-03-03T05:44:38.803Z,22.65
2023-03-03T05:45:38.844Z,22.64
2023-03-03T05:46:38.795Z,22.66
2023-03-03T05:47:38.760Z,22.65
2023-03-03T05:48:38.751Z,22.65
2023-03-03T05:49:38.740Z,22.66
2023-03-03T05:50:38.722Z,22.63
2023-03-03T05:51:38.715Z,22.65
2023-03-03T05:52:38.701Z,22.64
2023-03-03T05:53:38.693Z,22.65
2023-03-03T05:54:38.683Z,22.63
2023-03-03T05:55:38.674Z,22.64
2023-03-03T05:56:38.690Z,22.65
2023-03-03T05:57:38.655Z,22.64
2023-03-03T05:58:38.653Z,22.64
2023-03-03T05:59:38.630Z,22.63
2023-03-03T06:00:38.618Z,22.62
2023-03-03T06:01:38.668Z,22.61
2023-03-03T06:02:38.602Z,22.64
2023-03-03T06:03:38.583Z,22.65
2023-03-03T06:04:38.574Z,22.64
2023-03-03T06:05:38.562Z,22.63
2023-03-03T06:06:38.545Z,22.63
2023-03-03T06:07:38.542Z,22.67
2023-03-03T06:08:38.527Z,22.63
2023-03-03T06:09:38.528Z,22.64
2023-03-03T06:10:38.514Z,22.65
2023-03-03T06:11:38.514Z,22.66
2023-03-03T06:12:38.506Z,22.65
2023-03-03T06:13:38.506Z,22.66
2023-03-03T06:14:38.490Z,22.66
2023-03-03T06:15:38.530Z,22.64
2023-03-03T06:16:38.551Z,22.65
2023-03-03T06:17:38.456Z,22.65
2023-03-03T06:18:38.447Z,22.63
2023-03-03T06:19:38.429Z,22.63
2023-03-03T06:20:38.422Z,22.61
2023-03-03T06:21:38.400Z,22.63
2023-03-03T06:22:38.392Z,22.63
2023-03-03T06:23:38.382Z,22.63
2023-03-03T06:24:38.362Z,22.62
2023-03-03T06:25:38.339Z,22.62
2023-03-03T06:26:38.333Z,22.64
2023-03-03T06:27:38.321Z,22.63
2023-03-03T06:28:38.302Z,22.64
2023-03-03T06:29:38.293Z,22.66
2023-03-03T06:30:38.294Z,22.64
2023-03-03T06:31:38.287Z,22.64
2023-03-03T06:32:38.292Z,22.63
2023-03-03T06:33:38.228Z,22.64
2023-03-03T06:34:38.271Z,22.66
2023-03-03T06:35:38.256Z,22.77
2023-03-03T06:36:38.211Z,23.26
2023-03-03T06:37:38.168Z,24.05
2023-03-03T06:38:38.177Z,24.95
2023-03-03T06:39:38.145Z,24.56
2023-03-03T06:40:38.124Z,25.00
2023-03-03T06:41:38.112Z,25.69
2023-03-03T06:42:38.114Z,25.09
2023-03-03T06:43:38.146Z,26.02
2023-03-03T06:44:38.059Z,26.38
2023-03-03T06:45:38.180Z,26.10
2023-03-03T06:46:38.060Z,26.28
2023-03-03T06:47:38.019Z,26.19
2023-03-03T06:48:38.023Z,26.09
2023-03-03T06:49:37.986Z,26.12
2023-03-03T06:50:38.023Z,26.40
2023-03-03T06:51:37.950Z,26.46
2023-03-03T06:52:37.940Z,26.68
2023-03-03T06:53:37.928Z,26.92
2023-03-03T06:54:37.920Z,27.11
2023-03-03T06:55:37.890Z,27.27
2023-03-03T06:56:37.878Z,27.34
2023-03-03T06:57:37.857Z,27.45
2023-03-03T06:58:37.826Z,27.48
2023-03-03T06:59:37.838Z,27.66
2023-03-03T07:00:37.803Z,27.74
2023-03-03T07:01:37.773Z,27.81
2023-03-03T07:02:37.769Z,27.99
2023-03-03T07:03:37.742Z,28.17
2023-03-03T07:04:37.770Z,28.46
2023-03-03T07:05:37.705Z,28.51
2023-03-03T07:06:37.683Z,28.51
2023-03-03T07:07:37.682Z,28.66
2023-03-03T07:08:37.651Z,28.72
2023-03-03T07:09:37.624Z,28.77
2023-03-03T07:10:37.620Z,28.81
2023-03-03T07:11:37.614Z,28.93
2023-03-03T07:12:37.602Z,29.17
2023-03-03T07:13:37.555Z,29.23
2023-03-03T07:14:37.527Z,29.25
2023-03-03T07:15:37.530Z,29.32
2023-03-03T07:16:37.513Z,29.50
2023-03-03T07:17:37.463Z,29.56
2023-03-03T07:18:37.435Z,29.64
2023-03-03T07:19:37.427Z,29.98
2023-03-03T07:20:37.396Z,30.20
2023-03-03T07:21:37.403Z,30.35
2023-03-03T07:22:37.369Z,29.94
2023-03-03T07:23:37.334Z,29.92
2023-03-03T07:24:37.311Z,29.99
2023-03-03T07:25:37.287Z,29.98
2023-03-03T07:26:37.275Z,30.07
2023-03-03T07:27:37.253Z,30.18
2023-03-03T07:28:37.216Z,30.29
2023-03-03T07:29:37.205Z,30.30
2023-03-03T07:30:37.206Z,30.31
2023-03-03T07:31:37.159Z,30.29
2023-03-03T07:32:37.129Z,30.36
2023-03-03T07:33:37.090Z,30.32
2023-03-03T07:34:37.082Z,30.29
2023-03-03T07:35:37.082Z,30.35
2023-03-03T07:36:37.121Z,30.38
2023-03-03T07:37:37.020Z,30.12
2023-03-03T07:38:36.989Z,30.36
2023-03-03T07:39:40.153Z,30.51
2023-03-03T07:40:36.935Z,30.50
2023-03-03T07:41:36.922Z,30.32
2023-03-03T07:42:36.891Z,30.18
2023-03-03T07:43:36.891Z,29.98
2023-03-03T07:44:36.829Z,29.49
2023-03-03T07:45:36.844Z,29.44
2023-03-03T07:46:36.833Z,29.27
2023-03-03T07:47:36.772Z,29.13
2023-03-03T07:48:36.738Z,29.02
2023-03-03T07:49:36.767Z,28.70
2023-03-03T07:50:36.681Z,28.55
2023-03-03T07:51:36.672Z,28.32
2023-03-03T07:52:36.647Z,28.17
2023-03-03T07:53:36.657Z,28.03
2023-03-03T07:54:36.611Z,27.90
2023-03-03T07:55:36.572Z,27.85
2023-03-03T07:56:36.545Z,27.75
2023-03-03T07:57:36.536Z,27.64
2023-03-03T07:58:36.514Z,27.53
2023-03-03T07:59:36.488Z,27.42
2023-03-03T08:00:36.465Z,27.35
2023-03-03T08:01:36.458Z,27.28
2023-03-03T08:02:36.417Z,27.19
2023-03-03T08:03:36.398Z,27.11
2023-03-03T08:04:36.443Z,27.00
2023-03-03T08:05:36.442Z,26.89
2023-03-03T08:06:36.336Z,26.82
2023-03-03T08:07:36.291Z,26.75
2023-03-03T08:08:36.257Z,26.64
2023-03-03T08:09:36.234Z,26.55
2023-03-03T08:10:36.293Z,26.45
2023-03-03T08:11:36.180Z,26.23
2023-03-03T08:12:36.146Z,26.27
2023-03-03T08:13:36.159Z,26.20
2023-03-03T08:14:36.108Z,26.13
2023-03-03T08:15:36.099Z,26.08
2023-03-03T08:16:36.031Z,26.00
2023-03-03T08:17:36.021Z,25.94
2023-03-03T08:18:36.110Z,25.87
2023-03-03T08:19:35.955Z,25.77
2023-03-03T08:20:35.954Z,25.73
2023-03-03T08:21:35.919Z,25.64
2023-03-03T08:22:35.891Z,25.58
2023-03-03T08:23:35.890Z,25.53
2023-03-03T08:24:38.385Z,25.47
2023-03-03T08:25:35.826Z,25.46
2023-03-03T08:28:35.766Z,25.30
2023-03-03T08:29:35.722Z,25.30
2023-03-03T08:30:35.701Z,25.28
2023-03-03T08:31:41.569Z,25.22
2023-03-03T08:32:36.754Z,25.19
2023-03-03T08:33:35.626Z,25.11
2023-03-03T08:34:35.602Z,25.10
2023-03-03T08:35:35.580Z,25.05
2023-03-03T08:36:35.545Z,25.19
2023-03-03T08:37:35.524Z,25.54
2023-03-03T08:38:35.494Z,26.25
2023-03-03T08:39:35.468Z,25.51
2023-03-03T08:40:35.438Z,24.65
2023-03-03T08:41:35.435Z,22.72
2023-03-03T08:42:35.398Z,23.58
2023-03-03T08:43:35.413Z,23.57
2023-03-03T08:44:35.384Z,24.02
2023-03-03T08:45:35.396Z,23.53
2023-03-03T08:46:35.558Z,23.49
2023-03-03T08:47:35.373Z,23.36
2023-03-03T08:48:35.380Z,23.91
2023-03-03T08:49:35.362Z,23.64
2023-03-03T08:50:35.368Z,22.95
2023-03-03T08:51:35.392Z,22.89
2023-03-03T08:53:35.392Z,23.81
2023-03-03T08:54:35.387Z,24.54
2023-03-03T08:55:35.395Z,24.48
2023-03-03T08:56:35.395Z,24.11
2023-03-03T08:57:35.429Z,24.09
2023-03-03T08:58:36.493Z,24.07
2023-03-03T08:59:35.464Z,24.86
2023-03-03T09:00:35.498Z,25.24
2023-03-03T09:01:35.524Z,25.55
2023-03-03T09:02:35.534Z,25.83
2023-03-03T09:03:35.574Z,26.13
2023-03-03T09:04:35.637Z,26.23
2023-03-03T09:05:35.619Z,26.46
2023-03-03T09:06:35.702Z,26.28
2023-03-03T09:07:35.666Z,26.53
2023-03-03T09:08:35.688Z,26.35
2023-03-03T09:09:35.715Z,26.90
2023-03-03T09:10:35.779Z,26.70
2023-03-03T09:11:35.775Z,26.29
2023-03-03T09:12:35.802Z,26.36
2023-03-03T09:13:35.799Z,26.61
2023-03-03T09:14:36.762Z,26.87
2023-03-03T09:15:35.838Z,26.60
2023-03-03T09:16:35.946Z,26.71
2023-03-03T09:17:35.875Z,26.11
2023-03-03T09:18:35.921Z,26.13
2023-03-03T09:19:37.304Z,26.32
2023-03-03T09:20:35.962Z,26.15
2023-03-03T09:21:35.937Z,26.47
2023-03-03T09:22:35.949Z,26.48
2023-03-03T09:23:36.007Z,26.63
2023-03-03T09:24:36.000Z,26.64
2023-03-03T09:25:35.988Z,26.65
2023-03-03T09:26:36.013Z,26.66
2023-03-03T09:27:36.023Z,26.91
2023-03-03T09:28:36.070Z,26.78
2023-03-03T09:29:36.059Z,26.49
2023-03-03T09:30:36.097Z,26.99
2023-03-03T09:31:36.185Z,26.86
2023-03-03T09:32:36.145Z,26.97
2023-03-03T09:33:36.092Z,29.12
2023-03-03T09:34:36.118Z,28.34
2023-03-03T09:35:36.175Z,27.17
2023-03-03T09:36:36.111Z,27.72
2023-03-03T09:37:36.119Z,27.51
2023-03-03T09:38:36.093Z,27.54
2023-03-03T09:39:36.101Z,26.61
2023-03-03T09:40:36.178Z,26.73
2023-03-03T09:41:36.080Z,25.60
2023-03-03T09:42:36.127Z,25.59
2023-03-03T09:43:36.119Z,24.77
2023-03-03T09:44:36.120Z,25.75
2023-03-03T09:45:36.114Z,26.00
2023-03-03T09:46:36.191Z,25.69
2023-03-03T09:47:36.117Z,26.58
2023-03-03T09:48:36.118Z,25.61
2023-03-03T09:49:36.188Z,27.63
2023-03-03T09:50:36.132Z,28.29
2023-03-03T09:51:36.136Z,26.53
2023-03-03T09:52:36.124Z,27.79
2023-03-03T09:53:36.125Z,28.71
2023-03-03T09:54:36.103Z,28.60
2023-03-03T09:55:37.220Z,28.83
2023-03-03T09:56:36.092Z,28.78
2023-03-03T09:57:36.087Z,28.91
2023-03-03T09:58:36.148Z,29.12
2023-03-03T09:59:36.086Z,29.29
2023-03-03T10:00:36.096Z,29.38
2023-03-03T10:01:36.035Z,29.64
2023-03-03T10:02:36.057Z,30.15
2023-03-03T10:03:36.053Z,29.85
2023-03-03T10:04:35.982Z,30.02
2023-03-03T10:05:35.970Z,30.24
2023-03-03T10:06:35.941Z,30.38
2023-03-03T10:07:35.928Z,30.54
2023-03-03T10:09:35.884Z,30.85
2023-03-03T10:10:35.988Z,30.97
2023-03-03T10:11:35.958Z,31.04
2023-03-03T10:12:35.814Z,31.20
2023-03-03T10:13:35.804Z,31.35
2023-03-03T10:14:35.785Z,31.66
2023-03-03T10:15:35.759Z,31.67
2023-03-03T10:16:35.757Z,31.69
2023-03-03T10:17:35.709Z,31.66
2023-03-03T10:18:35.693Z,31.68
2023-03-03T10:19:35.665Z,31.89
2023-03-03T10:20:49.169Z,32.33
2023-03-03T10:21:36.632Z,32.20
2023-03-03T10:22:35.594Z,32.18
2023-03-03T10:23:35.590Z,32.11
2023-03-03T10:24:35.572Z,32.22
2023-03-03T10:25:35.541Z,32.62
2023-03-03T10:26:44.838Z,32.13
2023-03-03T10:27:36.490Z,32.17
2023-03-03T10:28:35.487Z,32.03
2023-03-03T10:29:35.468Z,31.99
2023-03-03T10:30:44.232Z,32.01
2023-03-03T10:31:43.237Z,32.04
2023-03-03T10:32:35.649Z,32.40
2023-03-03T10:33:35.506Z,32.53
2023-03-03T10:34:35.367Z,32.37
2023-03-03T10:35:35.455Z,32.41
2023-03-03T10:36:35.342Z,32.57
2023-03-03T10:37:35.328Z,32.64
2023-03-03T10:38:35.613Z,32.60
2023-03-03T10:39:35.273Z,32.62
2023-03-03T10:40:35.259Z,33.03
2023-03-03T10:41:35.233Z,28.21
2023-03-03T10:42:35.232Z,25.92
2023-03-03T10:43:35.226Z,25.90
2023-03-03T10:44:35.242Z,25.62
2023-03-03T10:45:35.341Z,26.08
2023-03-03T10:46:35.247Z,25.00
2023-03-03T10:47:35.258Z,24.69
2023-03-03T10:48:35.277Z,24.94
2023-03-03T10:49:35.312Z,25.07
2023-03-03T10:50:35.340Z,25.26
2023-03-03T10:51:35.377Z,25.68
2023-03-03T10:52:35.424Z,25.56
2023-03-03T10:53:35.442Z,25.75
2023-03-03T10:54:35.474Z,26.08
2023-03-03T10:55:38.324Z,26.86
2023-03-03T10:56:51.830Z,27.16
2023-03-03T10:57:36.662Z,28.42
2023-03-03T10:58:35.708Z,29.15
2023-03-03T10:59:35.767Z,29.77
2023-03-03T11:00:35.819Z,29.46
2023-03-03T11:01:35.958Z,29.00
2023-03-03T11:02:35.920Z,28.58
2023-03-03T11:03:35.968Z,28.33
2023-03-03T11:04:36.067Z,28.45
2023-03-03T11:05:36.051Z,28.76
2023-03-03T11:06:36.073Z,28.06
2023-03-03T11:07:36.103Z,27.40
2023-03-03T11:08:36.122Z,27.02
2023-03-03T11:09:36.147Z,26.76
2023-03-03T11:10:36.160Z,26.55
2023-03-03T11:11:36.178Z,26.36
2023-03-03T11:12:36.200Z,26.24
2023-03-03T11:13:36.210Z,25.97
2023-03-03T11:14:36.213Z,25.90
2023-03-03T11:15:36.222Z,26.32
2023-03-03T11:16:36.272Z,26.47
2023-03-03T11:17:36.223Z,27.75
2023-03-03T11:18:36.223Z,27.65
2023-03-03T11:19:36.228Z,27.64
2023-03-03T11:20:36.254Z,27.62
2023-03-03T11:21:36.274Z,27.51
2023-03-03T11:22:36.229Z,27.67
2023-03-03T11:23:36.228Z,27.36
2023-03-03T11:24:36.225Z,27.36
2023-03-03T11:25:36.220Z,27.24
2023-03-03T11:26:36.225Z,27.40
2023-03-03T11:27:36.217Z,27.43
2023-03-03T11:28:36.223Z,27.52
2023-03-03T11:29:36.210Z,27.78
2023-03-03T11:30:36.203Z,27.74
2023-03-03T11:31:36.185Z,27.87
2023-03-03T11:32:36.187Z,27.73
2023-03-03T11:33:36.174Z,27.34
2023-03-03T11:34:36.179Z,27.30
2023-03-03T11:35:36.168Z,26.99
2023-03-03T11:36:36.171Z,26.73
2023-03-03T11:37:36.145Z,27.25
2023-03-03T11:38:36.150Z,26.95
2023-03-03T11:39:36.149Z,27.09
2023-03-03T11:40:36.122Z,26.76
2023-03-03T11:41:36.274Z,26.58
2023-03-03T11:42:36.121Z,26.69
2023-03-03T11:43:37.613Z,26.84
2023-03-03T11:44:36.083Z,26.86
2023-03-03T11:45:36.084Z,26.83
2023-03-03T11:46:36.065Z,26.75
2023-03-03T11:47:36.058Z,26.60
2023-03-03T11:48:36.049Z,26.52
2023-03-03T11:49:36.041Z,26.44
2023-03-03T11:50:36.031Z,26.35
2023-03-03T11:51:36.029Z,26.31
2023-03-03T11:52:36.007Z,26.28
2023-03-03T11:53:36.000Z,26.19
2023-03-03T11:54:35.982Z,26.15
2023-03-03T11:55:36.006Z,26.08
2023-03-03T11:56:35.966Z,26.02
2023-03-03T11:57:35.945Z,25.95
2023-03-03T11:58:35.935Z,25.89
2023-03-03T11:59:35.923Z,25.84
2023-03-03T13:01:35.055Z,24.92
2023-03-03T13:02:35.051Z,24.93
2023-03-03T13:03:41.074Z,24.91
2023-03-03T13:04:36.017Z,24.92
2023-03-03T13:05:35.086Z,24.91
2023-03-03T13:06:35.008Z,24.90
2023-03-03T13:07:35.276Z,24.92
2023-03-03T13:08:34.965Z,24.90
2023-03-03T13:09:34.958Z,24.88
2023-03-03T13:10:34.959Z,24.90
2023-03-03T13:11:34.942Z,24.89
2023-03-03T13:12:34.922Z,24.88
2023-03-03T13:13:34.899Z,24.87
2023-03-03T13:14:34.896Z,24.86
2023-03-03T13:15:37.601Z,24.87
2023-03-03T13:16:41.109Z,24.86
2023-03-03T13:17:35.875Z,24.89
2023-03-03T13:18:34.848Z,24.87
2023-03-03T13:19:34.830Z,24.86
2023-03-03T13:20:34.818Z,24.86
2023-03-03T13:21:34.797Z,24.85
2023-03-03T13:22:34.789Z,24.82
2023-03-03T13:23:34.774Z,24.82
2023-03-03T13:24:34.782Z,24.81
2023-03-03T13:25:34.789Z,24.79
2023-03-03T13:26:34.729Z,24.79
2023-03-03T13:27:34.715Z,24.78
2023-03-03T13:28:34.712Z,24.76
2023-03-03T13:29:34.686Z,24.75
2023-03-03T13:30:34.684Z,24.74
2023-03-03T13:31:34.752Z,24.71
2023-03-03T13:32:34.722Z,24.71
2023-03-03T13:33:34.629Z,24.69
2023-03-03T13:34:34.618Z,24.70
2023-03-03T13:35:34.715Z,24.67
2023-03-03T13:36:34.598Z,24.68
2023-03-03T13:37:34.577Z,24.65
2023-03-03T13:38:34.562Z,24.62
2023-03-03T13:39:34.543Z,24.62
2023-03-03T13:40:34.522Z,24.62
2023-03-03T13:41:34.505Z,24.60
2023-03-03T13:42:34.500Z,24.58
2023-03-03T13:43:34.475Z,24.55
2023-03-03T13:44:34.477Z,24.54
2023-03-03T13:45:34.485Z,24.55
2023-03-03T13:46:34.430Z,24.50
2023-03-03T13:47:34.424Z,24.49
2023-03-03T13:48:34.411Z,24.49
2023-03-03T13:49:34.391Z,24.47
2023-03-03T13:50:34.384Z,24.48
2023-03-03T13:51:34.339Z,24.45
2023-03-03T13:52:34.322Z,24.43
2023-03-03T13:53:34.324Z,24.45
2023-03-03T13:54:34.321Z,24.44
2023-03-03T13:55:34.319Z,24.41
2023-03-03T13:56:34.276Z,24.40
2023-03-03T13:57:34.236Z,24.40